Sargentville, Maine
Current Conditions -  °F | °C
As of 2:55 PM on Wednesday 17 Dec 2014 (Local Time) from KBHB Reporting Station
Overcast Overcast  
Wind Chill: 32°   Ceiling: 800
Heat Index: 39°   Visibility: 6mi
Dew Point: 39°   Wind: 13mph
Humidity: 100%   Direction: 60°ENE
Pressure: 29.68"   Gusts: 21mph
Location:  44.3°N, 68.67°W
Report Text: KBHB 171955Z AUTO 06011G18KT 6SM OVC008 04/04 A2968 RMK AO1 P0012
Loading
Personal Weather Stations






























Interactive Weather Map New forecast layout! Learn more

10-Day Weather Forecast

Advertisements
Track Severe Weather on mobile